sensor_id;sensor_type;location;lat;lon;timestamp;P1;durP1;ratioP1;P2;durP2;ratioP2
28176;SDS011;15461;41.652;9.378;2022-07-30T00:02:12;7.35;;;3.25;;
28176;SDS011;15461;41.652;9.378;2022-07-30T00:04:38;5.18;;;3.40;;
28176;SDS011;15461;41.652;9.378;2022-07-30T00:07:04;7.50;;;3.30;;
28176;SDS011;15461;41.652;9.378;2022-07-30T00:09:30;7.55;;;3.17;;
28176;SDS011;15461;41.652;9.378;2022-07-30T00:11:56;5.57;;;3.33;;
28176;SDS011;15461;41.652;9.378;2022-07-30T00:14:22;6.30;;;3.35;;
28176;SDS011;15461;41.652;9.378;2022-07-30T00:16:48;5.70;;;3.05;;
28176;SDS011;15461;41.652;9.378;2022-07-30T00:19:14;8.07;;;3.30;;
28176;SDS011;15461;41.652;9.378;2022-07-30T00:21:39;7.80;;;3.50;;
28176;SDS011;15461;41.652;9.378;2022-07-30T00:24:06;4.95;;;3.15;;
28176;SDS011;15461;41.652;9.378;2022-07-30T00:26:32;7.57;;;3.50;;
28176;SDS011;15461;41.652;9.378;2022-07-30T00:28:58;9.20;;;3.28;;
28176;SDS011;15461;41.652;9.378;2022-07-30T00:31:24;6.97;;;3.47;;
28176;SDS011;15461;41.652;9.378;2022-07-30T00:33:51;8.13;;;3.53;;
28176;SDS011;15461;41.652;9.378;2022-07-30T00:36:16;8.23;;;3.80;;
28176;SDS011;15461;41.652;9.378;2022-07-30T00:38:43;9.40;;;3.28;;
28176;SDS011;15461;41.652;9.378;2022-07-30T00:41:10;6.28;;;3.40;;
28176;SDS011;15461;41.652;9.378;2022-07-30T00:43:36;10.23;;;3.50;;
28176;SDS011;15461;41.652;9.378;2022-07-30T00:46:02;12.20;;;3.70;;
28176;SDS011;15461;41.652;9.378;2022-07-30T00:48:28;8.52;;;3.80;;
28176;SDS011;15461;41.652;9.378;2022-07-30T00:50:54;5.40;;;3.17;;
28176;SDS011;15461;41.652;9.378;2022-07-30T00:53:20;14.05;;;3.92;;
28176;SDS011;15461;41.652;9.378;2022-07-30T00:55:45;9.35;;;3.22;;
28176;SDS011;15461;41.652;9.378;2022-07-30T00:58:11;10.13;;;3.33;;
28176;SDS011;15461;41.652;9.378;2022-07-30T01:00:37;7.57;;;3.50;;
28176;SDS011;15461;41.652;9.378;2022-07-30T01:03:03;9.05;;;3.58;;
28176;SDS011;15461;41.652;9.378;2022-07-30T01:05:29;6.97;;;3.17;;
28176;SDS011;15461;41.652;9.378;2022-07-30T01:07:56;8.85;;;3.55;;
28176;SDS011;15461;41.652;9.378;2022-07-30T01:10:21;7.10;;;3.53;;
28176;SDS011;15461;41.652;9.378;2022-07-30T01:12:47;7.30;;;3.58;;
28176;SDS011;15461;41.652;9.378;2022-07-30T01:15:16;7.82;;;3.80;;
28176;SDS011;15461;41.652;9.378;2022-07-30T01:17:43;7.97;;;3.90;;
28176;SDS011;15461;41.652;9.378;2022-07-30T01:20:17;8.05;;;3.45;;
28176;SDS011;15461;41.652;9.378;2022-07-30T01:28:17;6.10;;;3.33;;
28176;SDS011;15461;41.652;9.378;2022-07-30T01:31:04;7.00;;;3.47;;
28176;SDS011;15461;41.652;9.378;2022-07-30T01:33:33;12.50;;;3.92;;
28176;SDS011;15461;41.652;9.378;2022-07-30T01:36:01;8.32;;;3.55;;
28176;SDS011;15461;41.652;9.378;2022-07-30T01:38:28;10.57;;;3.60;;
28176;SDS011;15461;41.652;9.378;2022-07-30T01:40:55;9.50;;;3.33;;
28176;SDS011;15461;41.652;9.378;2022-07-30T01:43:22;11.27;;;3.63;;
28176;SDS011;15461;41.652;9.378;2022-07-30T01:45:50;9.07;;;3.40;;
28176;SDS011;15461;41.652;9.378;2022-07-30T01:48:19;6.63;;;3.17;;
28176;SDS011;15461;41.652;9.378;2022-07-30T01:50:48;9.13;;;3.40;;
28176;SDS011;15461;41.652;9.378;2022-07-30T01:53:18;7.95;;;3.53;;
28176;SDS011;15461;41.652;9.378;2022-07-30T01:55:49;8.70;;;3.97;;
28176;SDS011;15461;41.652;9.378;2022-07-30T01:58:17;11.30;;;3.75;;
28176;SDS011;15461;41.652;9.378;2022-07-30T02:00:50;8.15;;;3.70;;
28176;SDS011;15461;41.652;9.378;2022-07-30T02:03:20;11.18;;;3.78;;
28176;SDS011;15461;41.652;9.378;2022-07-30T02:05:55;12.15;;;3.63;;
28176;SDS011;15461;41.652;9.378;2022-07-30T02:08:27;10.23;;;3.60;;
28176;SDS011;15461;41.652;9.378;2022-07-30T02:11:06;9.50;;;3.72;;
28176;SDS011;15461;41.652;9.378;2022-07-30T02:13:37;9.25;;;3.30;;
28176;SDS011;15461;41.652;9.378;2022-07-30T02:16:17;8.65;;;3.85;;
28176;SDS011;15461;41.652;9.378;2022-07-30T02:18:54;6.35;;;3.45;;
28176;SDS011;15461;41.652;9.378;2022-07-30T02:21:27;7.22;;;3.13;;
28176;SDS011;15461;41.652;9.378;2022-07-30T02:23:56;7.57;;;3.50;;
28176;SDS011;15461;41.652;9.378;2022-07-30T02:26:23;9.02;;;3.83;;
28176;SDS011;15461;41.652;9.378;2022-07-30T02:28:52;10.25;;;3.53;;
28176;SDS011;15461;41.652;9.378;2022-07-30T02:31:22;8.07;;;3.53;;
28176;SDS011;15461;41.652;9.378;2022-07-30T02:33:54;13.75;;;3.53;;
28176;SDS011;15461;41.652;9.378;2022-07-30T02:36:24;8.68;;;3.80;;
28176;SDS011;15461;41.652;9.378;2022-07-30T02:38:52;8.50;;;3.92;;
28176;SDS011;15461;41.652;9.378;2022-07-30T02:41:19;6.13;;;3.13;;
28176;SDS011;15461;41.652;9.378;2022-07-30T02:43:48;8.95;;;3.67;;
28176;SDS011;15461;41.652;9.378;2022-07-30T02:46:17;7.82;;;3.70;;
28176;SDS011;15461;41.652;9.378;2022-07-30T02:49:04;8.35;;;3.72;;
28176;SDS011;15461;41.652;9.378;2022-07-30T02:51:33;10.27;;;4.07;;
28176;SDS011;15461;41.652;9.378;2022-07-30T02:54:00;10.90;;;3.80;;
28176;SDS011;15461;41.652;9.378;2022-07-30T02:56:28;7.88;;;3.67;;
28176;SDS011;15461;41.652;9.378;2022-07-30T02:58:55;9.30;;;3.97;;
28176;SDS011;15461;41.652;9.378;2022-07-30T03:01:23;9.82;;;4.03;;
28176;SDS011;15461;41.652;9.378;2022-07-30T03:03:50;8.15;;;3.75;;
28176;SDS011;15461;41.652;9.378;2022-07-30T03:06:18;9.75;;;3.53;;
28176;SDS011;15461;41.652;9.378;2022-07-30T03:08:48;11.98;;;4.13;;
28176;SDS011;15461;41.652;9.378;2022-07-30T03:11:14;10.20;;;4.05;;
28176;SDS011;15461;41.652;9.378;2022-07-30T03:13:44;10.82;;;3.92;;
28176;SDS011;15461;41.652;9.378;2022-07-30T03:16:10;5.90;;;3.72;;
28176;SDS011;15461;41.652;9.378;2022-07-30T03:18:37;7.28;;;3.63;;
28176;SDS011;15461;41.652;9.378;2022-07-30T03:21:07;9.30;;;3.72;;
28176;SDS011;15461;41.652;9.378;2022-07-30T03:23:37;10.52;;;3.80;;
28176;SDS011;15461;41.652;9.378;2022-07-30T03:26:05;13.18;;;3.97;;
28176;SDS011;15461;41.652;9.378;2022-07-30T03:28:35;10.48;;;4.28;;
28176;SDS011;15461;41.652;9.378;2022-07-30T03:31:04;9.15;;;3.72;;
28176;SDS011;15461;41.652;9.378;2022-07-30T03:33:31;8.93;;;3.85;;
28176;SDS011;15461;41.652;9.378;2022-07-30T03:35:59;6.78;;;3.78;;
28176;SDS011;15461;41.652;9.378;2022-07-30T03:38:25;8.32;;;4.00;;
28176;SDS011;15461;41.652;9.378;2022-07-30T03:40:53;6.57;;;3.60;;
28176;SDS011;15461;41.652;9.378;2022-07-30T03:43:19;8.52;;;4.05;;
28176;SDS011;15461;41.652;9.378;2022-07-30T03:45:46;11.20;;;4.35;;
28176;SDS011;15461;41.652;9.378;2022-07-30T03:48:15;8.45;;;3.95;;
28176;SDS011;15461;41.652;9.378;2022-07-30T03:50:45;8.48;;;4.18;;
28176;SDS011;15461;41.652;9.378;2022-07-30T03:53:11;9.88;;;3.90;;
28176;SDS011;15461;41.652;9.378;2022-07-30T03:55:57;7.47;;;3.92;;
28176;SDS011;15461;41.652;9.378;2022-07-30T03:58:45;12.63;;;4.32;;
28176;SDS011;15461;41.652;9.378;2022-07-30T04:01:11;7.75;;;4.20;;
28176;SDS011;15461;41.652;9.378;2022-07-30T04:03:38;7.88;;;4.00;;
28176;SDS011;15461;41.652;9.378;2022-07-30T04:06:05;10.30;;;4.07;;
28176;SDS011;15461;41.652;9.378;2022-07-30T04:08:31;11.32;;;4.32;;
28176;SDS011;15461;41.652;9.378;2022-07-30T04:10:57;8.02;;;3.90;;
28176;SDS011;15461;41.652;9.378;2022-07-30T04:13:52;7.82;;;3.90;;
28176;SDS011;15461;41.652;9.378;2022-07-30T04:16:28;9.48;;;4.40;;
28176;SDS011;15461;41.652;9.378;2022-07-30T04:19:01;10.48;;;4.10;;
28176;SDS011;15461;41.652;9.378;2022-07-30T04:21:30;9.32;;;4.00;;
28176;SDS011;15461;41.652;9.378;2022-07-30T04:23:58;7.30;;;3.67;;
28176;SDS011;15461;41.652;9.378;2022-07-30T04:26:29;11.88;;;4.53;;
28176;SDS011;15461;41.652;9.378;2022-07-30T04:28:57;8.30;;;3.88;;
28176;SDS011;15461;41.652;9.378;2022-07-30T04:31:24;10.23;;;4.25;;
28176;SDS011;15461;41.652;9.378;2022-07-30T04:33:54;13.02;;;3.67;;
28176;SDS011;15461;41.652;9.378;2022-07-30T04:36:28;11.43;;;3.97;;
28176;SDS011;15461;41.652;9.378;2022-07-30T04:38:56;10.55;;;4.00;;
28176;SDS011;15461;41.652;9.378;2022-07-30T04:41:22;12.38;;;4.55;;
28176;SDS011;15461;41.652;9.378;2022-07-30T04:44:18;9.43;;;4.20;;
28176;SDS011;15461;41.652;9.378;2022-07-30T04:47:01;8.55;;;3.92;;
28176;SDS011;15461;41.652;9.378;2022-07-30T04:49:32;9.55;;;4.20;;
28176;SDS011;15461;41.652;9.378;2022-07-30T04:51:59;10.15;;;4.40;;
28176;SDS011;15461;41.652;9.378;2022-07-30T04:54:27;10.13;;;3.97;;
28176;SDS011;15461;41.652;9.378;2022-07-30T04:59:39;222.50;;;16.85;;
28176;SDS011;15461;41.652;9.378;2022-07-30T05:02:05;124.10;;;11.15;;
28176;SDS011;15461;41.652;9.378;2022-07-30T05:04:33;17.05;;;4.55;;
28176;SDS011;15461;41.652;9.378;2022-07-30T05:07:00;18.30;;;4.88;;
28176;SDS011;15461;41.652;9.378;2022-07-30T05:09:28;18.63;;;4.60;;
28176;SDS011;15461;41.652;9.378;2022-07-30T05:11:55;18.58;;;5.15;;
28176;SDS011;15461;41.652;9.378;2022-07-30T05:14:22;19.35;;;4.55;;
28176;SDS011;15461;41.652;9.378;2022-07-30T05:16:49;27.17;;;4.88;;
28176;SDS011;15461;41.652;9.378;2022-07-30T05:19:16;19.48;;;4.70;;
28176;SDS011;15461;41.652;9.378;2022-07-30T05:21:43;16.15;;;4.40;;
28176;SDS011;15461;41.652;9.378;2022-07-30T05:24:09;14.38;;;4.45;;
28176;SDS011;15461;41.652;9.378;2022-07-30T05:26:38;15.65;;;4.22;;
28176;SDS011;15461;41.652;9.378;2022-07-30T05:29:07;9.55;;;4.25;;
28176;SDS011;15461;41.652;9.378;2022-07-30T05:31:43;13.10;;;4.38;;
28176;SDS011;15461;41.652;9.378;2022-07-30T05:34:09;15.13;;;4.47;;
28176;SDS011;15461;41.652;9.378;2022-07-30T05:36:41;51.60;;;6.38;;
28176;SDS011;15461;41.652;9.378;2022-07-30T05:39:11;32.42;;;5.55;;
28176;SDS011;15461;41.652;9.378;2022-07-30T05:41:56;12.60;;;5.00;;
28176;SDS011;15461;41.652;9.378;2022-07-30T05:44:32;31.63;;;5.00;;
28176;SDS011;15461;41.652;9.378;2022-07-30T05:46:58;7.65;;;3.67;;
28176;SDS011;15461;41.652;9.378;2022-07-30T05:49:24;12.68;;;3.70;;
28176;SDS011;15461;41.652;9.378;2022-07-30T05:51:53;11.00;;;3.65;;
28176;SDS011;15461;41.652;9.378;2022-07-30T05:54:19;14.55;;;3.90;;
28176;SDS011;15461;41.652;9.378;2022-07-30T05:57:17;11.95;;;3.63;;
28176;SDS011;15461;41.652;9.378;2022-07-30T05:59:43;10.48;;;4.28;;
28176;SDS011;15461;41.652;9.378;2022-07-30T06:02:17;13.73;;;4.10;;
28176;SDS011;15461;41.652;9.378;2022-07-30T06:05:00;17.65;;;4.10;;
28176;SDS011;15461;41.652;9.378;2022-07-30T06:07:27;9.68;;;4.07;;
28176;SDS011;15461;41.652;9.378;2022-07-30T06:09:55;10.30;;;4.30;;
28176;SDS011;15461;41.652;9.378;2022-07-30T06:12:28;11.38;;;3.75;;
28176;SDS011;15461;41.652;9.378;2022-07-30T06:14:55;13.18;;;3.70;;
28176;SDS011;15461;41.652;9.378;2022-07-30T06:17:32;8.60;;;3.70;;
28176;SDS011;15461;41.652;9.378;2022-07-30T06:20:06;6.50;;;3.35;;
28176;SDS011;15461;41.652;9.378;2022-07-30T06:22:44;6.10;;;3.58;;
28176;SDS011;15461;41.652;9.378;2022-07-30T06:25:18;10.80;;;3.60;;
28176;SDS011;15461;41.652;9.378;2022-07-30T06:27:44;9.50;;;3.53;;
28176;SDS011;15461;41.652;9.378;2022-07-30T06:30:12;15.77;;;3.60;;
28176;SDS011;15461;41.652;9.378;2022-07-30T06:32:39;8.43;;;3.53;;
28176;SDS011;15461;41.652;9.378;2022-07-30T06:35:07;10.35;;;3.35;;
28176;SDS011;15461;41.652;9.378;2022-07-30T06:37:34;7.93;;;3.22;;
28176;SDS011;15461;41.652;9.378;2022-07-30T06:40:00;10.48;;;3.10;;
28176;SDS011;15461;41.652;9.378;2022-07-30T06:42:51;7.90;;;3.17;;
28176;SDS011;15461;41.652;9.378;2022-07-30T06:45:49;6.28;;;3.08;;
28176;SDS011;15461;41.652;9.378;2022-07-30T06:51:00;7.72;;;3.35;;
28176;SDS011;15461;41.652;9.378;2022-07-30T06:53:27;7.65;;;3.08;;
28176;SDS011;15461;41.652;9.378;2022-07-30T06:56:16;6.53;;;2.70;;
28176;SDS011;15461;41.652;9.378;2022-07-30T06:58:46;8.02;;;3.30;;
28176;SDS011;15461;41.652;9.378;2022-07-30T07:01:18;10.90;;;3.53;;
28176;SDS011;15461;41.652;9.378;2022-07-30T07:03:48;4.82;;;2.65;;
28176;SDS011;15461;41.652;9.378;2022-07-30T07:06:14;10.88;;;2.70;;
28176;SDS011;15461;41.652;9.378;2022-07-30T07:08:41;3.72;;;2.30;;
28176;SDS011;15461;41.652;9.378;2022-07-30T07:11:11;5.25;;;2.60;;
28176;SDS011;15461;41.652;9.378;2022-07-30T07:13:46;3.92;;;2.50;;
28176;SDS011;15461;41.652;9.378;2022-07-30T07:16:21;5.60;;;2.83;;
28176;SDS011;15461;41.652;9.378;2022-07-30T07:18:52;5.72;;;2.72;;
28176;SDS011;15461;41.652;9.378;2022-07-30T07:21:18;7.82;;;2.80;;
28176;SDS011;15461;41.652;9.378;2022-07-30T07:23:45;24.80;;;4.05;;
28176;SDS011;15461;41.652;9.378;2022-07-30T07:26:32;6.90;;;2.60;;
28176;SDS011;15461;41.652;9.378;2022-07-30T07:28:58;5.07;;;2.42;;
28176;SDS011;15461;41.652;9.378;2022-07-30T07:31:24;4.65;;;2.50;;
28176;SDS011;15461;41.652;9.378;2022-07-30T07:33:50;5.05;;;2.28;;
28176;SDS011;15461;41.652;9.378;2022-07-30T07:36:21;4.40;;;2.30;;
28176;SDS011;15461;41.652;9.378;2022-07-30T07:38:48;6.95;;;2.65;;
28176;SDS011;15461;41.652;9.378;2022-07-30T07:41:15;9.18;;;3.90;;
28176;SDS011;15461;41.652;9.378;2022-07-30T07:43:41;8.38;;;3.17;;
28176;SDS011;15461;41.652;9.378;2022-07-30T07:46:12;8.48;;;3.13;;
28176;SDS011;15461;41.652;9.378;2022-07-30T07:48:41;11.77;;;3.53;;
28176;SDS011;15461;41.652;9.378;2022-07-30T07:51:27;13.10;;;3.47;;
28176;SDS011;15461;41.652;9.378;2022-07-30T07:53:54;8.50;;;3.10;;
28176;SDS011;15461;41.652;9.378;2022-07-30T07:56:20;7.50;;;2.95;;
28176;SDS011;15461;41.652;9.378;2022-07-30T07:58:46;13.43;;;3.40;;
28176;SDS011;15461;41.652;9.378;2022-07-30T08:01:13;8.35;;;2.90;;
28176;SDS011;15461;41.652;9.378;2022-07-30T08:03:59;8.73;;;3.00;;
28176;SDS011;15461;41.652;9.378;2022-07-30T08:06:45;3.78;;;2.75;;
28176;SDS011;15461;41.652;9.378;2022-07-30T08:09:43;6.72;;;2.28;;
28176;SDS011;15461;41.652;9.378;2022-07-30T08:12:29;12.02;;;2.33;;
28176;SDS011;15461;41.652;9.378;2022-07-30T08:15:13;5.93;;;2.60;;
28176;SDS011;15461;41.652;9.378;2022-07-30T08:18:14;13.90;;;2.65;;
28176;SDS011;15461;41.652;9.378;2022-07-30T08:20:47;5.57;;;2.13;;
28176;SDS011;15461;41.652;9.378;2022-07-30T08:23:18;3.85;;;2.20;;
28176;SDS011;15461;41.652;9.378;2022-07-30T08:25:47;3.53;;;1.90;;
28176;SDS011;15461;41.652;9.378;2022-07-30T08:28:13;5.07;;;2.20;;
28176;SDS011;15461;41.652;9.378;2022-07-30T08:30:39;4.80;;;2.08;;
28176;SDS011;15461;41.652;9.378;2022-07-30T08:33:05;13.10;;;3.20;;
28176;SDS011;15461;41.652;9.378;2022-07-30T08:35:31;44.20;;;4.40;;
28176;SDS011;15461;41.652;9.378;2022-07-30T08:37:57;36.28;;;4.38;;
28176;SDS011;15461;41.652;9.378;2022-07-30T08:40:25;7.32;;;2.25;;
28176;SDS011;15461;41.652;9.378;2022-07-30T08:42:59;7.40;;;2.50;;
28176;SDS011;15461;41.652;9.378;2022-07-30T08:45:31;4.97;;;2.40;;
28176;SDS011;15461;41.652;9.378;2022-07-30T08:48:05;11.93;;;2.33;;
28176;SDS011;15461;41.652;9.378;2022-07-30T08:50:43;6.20;;;2.10;;
28176;SDS011;15461;41.652;9.378;2022-07-30T08:53:30;3.55;;;2.17;;
28176;SDS011;15461;41.652;9.378;2022-07-30T08:55:58;3.80;;;2.20;;
28176;SDS011;15461;41.652;9.378;2022-07-30T08:58:26;6.72;;;2.20;;
28176;SDS011;15461;41.652;9.378;2022-07-30T09:00:59;4.63;;;2.15;;
28176;SDS011;15461;41.652;9.378;2022-07-30T09:03:27;6.30;;;2.30;;
28176;SDS011;15461;41.652;9.378;2022-07-30T09:05:57;5.70;;;2.20;;
28176;SDS011;15461;41.652;9.378;2022-07-30T09:08:24;5.38;;;2.20;;
28176;SDS011;15461;41.652;9.378;2022-07-30T09:10:50;4.40;;;1.88;;
28176;SDS011;15461;41.652;9.378;2022-07-30T09:13:29;4.32;;;1.60;;
28176;SDS011;15461;41.652;9.378;2022-07-30T09:16:00;18.88;;;2.75;;
28176;SDS011;15461;41.652;9.378;2022-07-30T09:18:35;4.68;;;2.00;;
28176;SDS011;15461;41.652;9.378;2022-07-30T09:21:20;7.60;;;1.90;;
28176;SDS011;15461;41.652;9.378;2022-07-30T09:23:55;2.72;;;1.77;;
28176;SDS011;15461;41.652;9.378;2022-07-30T09:29:40;12.38;;;2.30;;
28176;SDS011;15461;41.652;9.378;2022-07-30T09:32:25;2.22;;;1.90;;
28176;SDS011;15461;41.652;9.378;2022-07-30T09:35:39;8.75;;;2.42;;
28176;SDS011;15461;41.652;9.378;2022-07-30T09:38:37;5.32;;;1.98;;
28176;SDS011;15461;41.652;9.378;2022-07-30T09:41:48;7.13;;;2.15;;
28176;SDS011;15461;41.652;9.378;2022-07-30T09:44:27;5.47;;;2.00;;
28176;SDS011;15461;41.652;9.378;2022-07-30T09:46:56;4.20;;;2.00;;
28176;SDS011;15461;41.652;9.378;2022-07-30T09:49:37;5.78;;;1.90;;
28176;SDS011;15461;41.652;9.378;2022-07-30T09:52:06;9.93;;;2.50;;
28176;SDS011;15461;41.652;9.378;2022-07-30T09:54:48;8.15;;;2.10;;
28176;SDS011;15461;41.652;9.378;2022-07-30T09:57:16;2.53;;;1.92;;
28176;SDS011;15461;41.652;9.378;2022-07-30T10:03:23;7.50;;;2.10;;
28176;SDS011;15461;41.652;9.378;2022-07-30T10:06:08;3.75;;;1.90;;
28176;SDS011;15461;41.652;9.378;2022-07-30T10:08:39;5.47;;;2.20;;
28176;SDS011;15461;41.652;9.378;2022-07-30T10:11:13;3.80;;;1.85;;
28176;SDS011;15461;41.652;9.378;2022-07-30T10:13:40;4.07;;;1.83;;
28176;SDS011;15461;41.652;9.378;2022-07-30T10:16:08;7.57;;;1.90;;
28176;SDS011;15461;41.652;9.378;2022-07-30T10:18:36;3.47;;;1.88;;
28176;SDS011;15461;41.652;9.378;2022-07-30T10:21:23;5.40;;;1.85;;
28176;SDS011;15461;41.652;9.378;2022-07-30T10:24:23;8.15;;;2.28;;
28176;SDS011;15461;41.652;9.378;2022-07-30T10:27:08;10.15;;;2.47;;
28176;SDS011;15461;41.652;9.378;2022-07-30T10:29:48;14.35;;;2.70;;
28176;SDS011;15461;41.652;9.378;2022-07-30T10:32:14;12.82;;;2.35;;
28176;SDS011;15461;41.652;9.378;2022-07-30T10:34:40;22.83;;;3.08;;
28176;SDS011;15461;41.652;9.378;2022-07-30T10:37:07;4.75;;;2.00;;
28176;SDS011;15461;41.652;9.378;2022-07-30T10:39:36;12.18;;;2.40;;
28176;SDS011;15461;41.652;9.378;2022-07-30T10:45:22;9.20;;;2.13;;
28176;SDS011;15461;41.652;9.378;2022-07-30T10:47:51;17.67;;;3.05;;
28176;SDS011;15461;41.652;9.378;2022-07-30T10:50:21;8.77;;;2.45;;
28176;SDS011;15461;41.652;9.378;2022-07-30T10:52:55;9.77;;;2.60;;
28176;SDS011;15461;41.652;9.378;2022-07-30T10:55:23;16.25;;;2.30;;
28176;SDS011;15461;41.652;9.378;2022-07-30T10:58:04;9.65;;;2.42;;
28176;SDS011;15461;41.652;9.378;2022-07-30T11:00:57;13.82;;;2.78;;
28176;SDS011;15461;41.652;9.378;2022-07-30T11:03:21;21.38;;;3.00;;
28176;SDS011;15461;41.652;9.378;2022-07-30T11:06:23;8.70;;;2.50;;
28176;SDS011;15461;41.652;9.378;2022-07-30T11:08:41;9.38;;;2.45;;
28176;SDS011;15461;41.652;9.378;2022-07-30T11:13:54;15.77;;;2.90;;
28176;SDS011;15461;41.652;9.378;2022-07-30T11:16:22;6.18;;;2.10;;
28176;SDS011;15461;41.652;9.378;2022-07-30T11:19:14;7.88;;;2.08;;
28176;SDS011;15461;41.652;9.378;2022-07-30T11:21:41;10.25;;;2.42;;
28176;SDS011;15461;41.652;9.378;2022-07-30T11:30:02;12.45;;;2.50;;
28176;SDS011;15461;41.652;9.378;2022-07-30T11:32:32;9.02;;;3.13;;
28176;SDS011;15461;41.652;9.378;2022-07-30T11:35:18;10.93;;;3.03;;
28176;SDS011;15461;41.652;9.378;2022-07-30T11:40:32;13.50;;;2.53;;
28176;SDS011;15461;41.652;9.378;2022-07-30T11:46:06;3.90;;;1.42;;
28176;SDS011;15461;41.652;9.378;2022-07-30T11:48:38;5.28;;;1.90;;
28176;SDS011;15461;41.652;9.378;2022-07-30T11:51:18;5.22;;;1.80;;
28176;SDS011;15461;41.652;9.378;2022-07-30T11:53:46;3.92;;;1.75;;
28176;SDS011;15461;41.652;9.378;2022-07-30T11:56:29;4.38;;;1.80;;
28176;SDS011;15461;41.652;9.378;2022-07-30T11:59:00;4.28;;;2.25;;
28176;SDS011;15461;41.652;9.378;2022-07-30T12:01:30;8.20;;;2.60;;
28176;SDS011;15461;41.652;9.378;2022-07-30T12:04:00;5.25;;;2.33;;
28176;SDS011;15461;41.652;9.378;2022-07-30T12:06:30;7.25;;;2.58;;
28176;SDS011;15461;41.652;9.378;2022-07-30T12:08:58;7.95;;;2.70;;
28176;SDS011;15461;41.652;9.378;2022-07-30T12:11:24;8.00;;;2.25;;
28176;SDS011;15461;41.652;9.378;2022-07-30T12:16:24;6.85;;;2.47;;
28176;SDS011;15461;41.652;9.378;2022-07-30T12:18:51;19.77;;;3.55;;
28176;SDS011;15461;41.652;9.378;2022-07-30T12:21:17;6.43;;;2.30;;
28176;SDS011;15461;41.652;9.378;2022-07-30T12:23:55;7.78;;;2.70;;
28176;SDS011;15461;41.652;9.378;2022-07-30T12:26:23;8.30;;;2.78;;
28176;SDS011;15461;41.652;9.378;2022-07-30T12:28:51;5.88;;;2.47;;
28176;SDS011;15461;41.652;9.378;2022-07-30T12:31:19;5.22;;;2.50;;
28176;SDS011;15461;41.652;9.378;2022-07-30T12:33:45;11.70;;;2.80;;
28176;SDS011;15461;41.652;9.378;2022-07-30T12:36:22;8.43;;;2.60;;
28176;SDS011;15461;41.652;9.378;2022-07-30T12:38:50;9.50;;;3.17;;
28176;SDS011;15461;41.652;9.378;2022-07-30T12:41:18;5.07;;;2.80;;
28176;SDS011;15461;41.652;9.378;2022-07-30T12:43:49;19.23;;;3.50;;
28176;SDS011;15461;41.652;9.378;2022-07-30T12:46:18;7.57;;;2.55;;
28176;SDS011;15461;41.652;9.378;2022-07-30T12:48:49;9.18;;;2.78;;
28176;SDS011;15461;41.652;9.378;2022-07-30T12:51:19;7.68;;;2.85;;
28176;SDS011;15461;41.652;9.378;2022-07-30T12:53:46;7.32;;;2.65;;
28176;SDS011;15461;41.652;9.378;2022-07-30T12:56:13;9.27;;;3.00;;
28176;SDS011;15461;41.652;9.378;2022-07-30T12:58:40;7.25;;;2.70;;
28176;SDS011;15461;41.652;9.378;2022-07-30T13:01:06;10.18;;;2.80;;
28176;SDS011;15461;41.652;9.378;2022-07-30T13:03:33;5.10;;;2.53;;
28176;SDS011;15461;41.652;9.378;2022-07-30T13:06:12;8.90;;;2.80;;
28176;SDS011;15461;41.652;9.378;2022-07-30T13:08:43;8.52;;;2.97;;
28176;SDS011;15461;41.652;9.378;2022-07-30T13:11:11;9.93;;;2.78;;
28176;SDS011;15461;41.652;9.378;2022-07-30T13:13:37;9.73;;;2.80;;
28176;SDS011;15461;41.652;9.378;2022-07-30T13:16:04;9.45;;;3.00;;
28176;SDS011;15461;41.652;9.378;2022-07-30T13:18:31;11.68;;;3.50;;
28176;SDS011;15461;41.652;9.378;2022-07-30T13:20:59;7.43;;;3.20;;
28176;SDS011;15461;41.652;9.378;2022-07-30T13:23:26;12.27;;;3.75;;
28176;SDS011;15461;41.652;9.378;2022-07-30T13:25:54;8.48;;;3.20;;
28176;SDS011;15461;41.652;9.378;2022-07-30T13:28:21;13.57;;;3.17;;
28176;SDS011;15461;41.652;9.378;2022-07-30T13:30:47;5.57;;;2.22;;
28176;SDS011;15461;41.652;9.378;2022-07-30T13:33:14;9.00;;;2.72;;
28176;SDS011;15461;41.652;9.378;2022-07-30T13:35:40;7.57;;;2.75;;
28176;SDS011;15461;41.652;9.378;2022-07-30T13:38:06;5.70;;;2.70;;
28176;SDS011;15461;41.652;9.378;2022-07-30T13:40:32;5.28;;;2.40;;
28176;SDS011;15461;41.652;9.378;2022-07-30T13:42:59;6.82;;;2.78;;
28176;SDS011;15461;41.652;9.378;2022-07-30T13:45:25;6.18;;;2.70;;
28176;SDS011;15461;41.652;9.378;2022-07-30T13:47:52;7.60;;;2.90;;
28176;SDS011;15461;41.652;9.378;2022-07-30T13:50:18;8.23;;;2.72;;
28176;SDS011;15461;41.652;9.378;2022-07-30T13:52:44;11.43;;;3.10;;
28176;SDS011;15461;41.652;9.378;2022-07-30T13:55:10;8.45;;;2.92;;
28176;SDS011;15461;41.652;9.378;2022-07-30T13:57:36;5.68;;;2.88;;
28176;SDS011;15461;41.652;9.378;2022-07-30T14:00:06;8.23;;;2.58;;
28176;SDS011;15461;41.652;9.378;2022-07-30T14:02:33;10.50;;;3.17;;
28176;SDS011;15461;41.652;9.378;2022-07-30T14:04:59;6.82;;;2.80;;
28176;SDS011;15461;41.652;9.378;2022-07-30T14:07:34;10.93;;;2.92;;
28176;SDS011;15461;41.652;9.378;2022-07-30T14:10:01;9.27;;;2.55;;
28176;SDS011;15461;41.652;9.378;2022-07-30T14:12:29;9.27;;;2.70;;
28176;SDS011;15461;41.652;9.378;2022-07-30T14:14:55;7.10;;;2.67;;
28176;SDS011;15461;41.652;9.378;2022-07-30T14:17:20;5.97;;;2.78;;
28176;SDS011;15461;41.652;9.378;2022-07-30T14:19:46;7.30;;;2.72;;
28176;SDS011;15461;41.652;9.378;2022-07-30T14:22:14;6.55;;;2.63;;
28176;SDS011;15461;41.652;9.378;2022-07-30T14:24:40;8.98;;;2.72;;
28176;SDS011;15461;41.652;9.378;2022-07-30T14:27:06;5.38;;;2.42;;
28176;SDS011;15461;41.652;9.378;2022-07-30T14:29:32;8.50;;;2.70;;
28176;SDS011;15461;41.652;9.378;2022-07-30T14:31:58;9.30;;;3.15;;
28176;SDS011;15461;41.652;9.378;2022-07-30T14:34:24;4.68;;;2.45;;
28176;SDS011;15461;41.652;9.378;2022-07-30T14:36:49;9.15;;;2.67;;
28176;SDS011;15461;41.652;9.378;2022-07-30T14:39:15;6.15;;;2.75;;
28176;SDS011;15461;41.652;9.378;2022-07-30T14:41:41;11.52;;;3.05;;
28176;SDS011;15461;41.652;9.378;2022-07-30T14:44:07;8.40;;;2.88;;
28176;SDS011;15461;41.652;9.378;2022-07-30T14:46:36;6.10;;;2.63;;
28176;SDS011;15461;41.652;9.378;2022-07-30T14:49:02;8.65;;;2.78;;
28176;SDS011;15461;41.652;9.378;2022-07-30T14:51:28;10.95;;;2.85;;
28176;SDS011;15461;41.652;9.378;2022-07-30T14:53:55;9.38;;;2.75;;
28176;SDS011;15461;41.652;9.378;2022-07-30T14:56:22;10.25;;;2.90;;
28176;SDS011;15461;41.652;9.378;2022-07-30T14:58:49;11.90;;;2.90;;
28176;SDS011;15461;41.652;9.378;2022-07-30T15:01:15;6.70;;;2.50;;
28176;SDS011;15461;41.652;9.378;2022-07-30T15:03:41;5.82;;;2.28;;
28176;SDS011;15461;41.652;9.378;2022-07-30T15:06:08;7.32;;;2.38;;
28176;SDS011;15461;41.652;9.378;2022-07-30T15:08:36;14.43;;;2.97;;
28176;SDS011;15461;41.652;9.378;2022-07-30T15:11:03;9.50;;;2.92;;
28176;SDS011;15461;41.652;9.378;2022-07-30T15:13:28;9.73;;;3.22;;
28176;SDS011;15461;41.652;9.378;2022-07-30T15:15:54;12.18;;;2.70;;
28176;SDS011;15461;41.652;9.378;2022-07-30T15:18:20;9.98;;;2.65;;
28176;SDS011;15461;41.652;9.378;2022-07-30T15:20:46;10.25;;;2.60;;
28176;SDS011;15461;41.652;9.378;2022-07-30T15:23:12;7.47;;;2.97;;
28176;SDS011;15461;41.652;9.378;2022-07-30T15:25:39;6.70;;;2.75;;
28176;SDS011;15461;41.652;9.378;2022-07-30T15:28:05;6.75;;;2.70;;
28176;SDS011;15461;41.652;9.378;2022-07-30T15:30:31;7.13;;;2.60;;
28176;SDS011;15461;41.652;9.378;2022-07-30T15:32:57;8.00;;;2.80;;
28176;SDS011;15461;41.652;9.378;2022-07-30T15:35:23;6.93;;;2.72;;
28176;SDS011;15461;41.652;9.378;2022-07-30T15:37:49;7.68;;;3.03;;
28176;SDS011;15461;41.652;9.378;2022-07-30T15:40:15;8.75;;;3.20;;
28176;SDS011;15461;41.652;9.378;2022-07-30T15:42:41;7.65;;;2.65;;